Time,TemperatureF,DewpointF,PressureIn,WindDirection,WindDirectionDegrees,WindSpeedMPH,WindSpeedGustMPH,Humidity,HourlyPrecipIn,Conditions,Clouds,dailyrainin,SoftwareType,DateUTC
2013-05-20 00:01:00,77.4,77.4,30.04,East,90,1.0,5.0,100,0.00,,,-99.99,WeatherLink 5.5,2013-05-20 04:01:00,
2013-05-20 00:05:00,77.6,77.6,30.04,ESE,112,2.0,5.0,100,0.00,,,-99.99,WeatherLink 5.5,2013-05-20 04:05:00,
2013-05-20 00:16:00,77.6,77.6,30.04,ESE,112,1.0,6.0,100,0.00,,,-99.99,WeatherLink 5.5,2013-05-20 04:16:00,
2013-05-20 00:25:00,77.4,77.4,30.03,East,90,1.0,5.0,100,0.00,,,-99.99,WeatherLink 5.5,2013-05-20 04:25:00,
2013-05-20 00:31:00,77.4,77.4,30.03,ESE,112,0.0,3.0,100,0.00,,,-99.99,WeatherLink 5.5,2013-05-20 04:31:00,
2013-05-20 00:40:00,77.4,77.4,30.03,East,90,1.0,6.0,100,0.00,,,-99.99,WeatherLink 5.5,2013-05-20 04:40:00,
2013-05-20 00:45:00,77.4,77.4,30.03,East,90,0.0,4.0,100,0.00,,,-99.99,WeatherLink 5.5,2013-05-20 04:45:00,
2013-05-20 00:50:00,77.5,77.5,30.03,East,90,1.0,5.0,100,0.00,,,-99.99,WeatherLink 5.5,2013-05-20 04:50:00,
2013-05-20 01:00:00,77.4,77.4,30.03,East,90,1.0,5.0,100,0.00,,,-99.99,WeatherLink 5.5,2013-05-20 05:00:00,
2013-05-20 01:05:00,77.4,77.4,30.03,East,90,1.0,4.0,100,0.00,,,-99.99,WeatherLink 5.5,2013-05-20 05:05:00,
2013-05-20 01:16:00,77.4,77.4,30.03,East,90,2.0,7.0,100,0.00,,,-99.99,WeatherLink 5.5,2013-05-20 05:16:00,
2013-05-20 01:25:00,77.3,77.3,30.02,ESE,112,1.0,7.0,100,0.00,,,-99.99,WeatherLink 5.5,2013-05-20 05:25:00,
2013-05-20 01:31:00,77.2,77.2,30.02,ESE,112,1.0,6.0,100,0.00,,,-99.99,WeatherLink 5.5,2013-05-20 05:31:00,
2013-05-20 01:40:00,77.2,77.2,30.01,ESE,112,1.0,5.0,100,0.00,,,-99.99,WeatherLink 5.5,2013-05-20 05:40:00,
2013-05-20 01:46:00,77.3,77.3,30.01,ESE,112,1.0,7.0,100,0.00,,,-99.99,WeatherLink 5.5,2013-05-20 05:46:00,
2013-05-20 01:55:00,77.2,77.2,30.01,ESE,112,0.0,4.0,100,0.00,,,-99.99,WeatherLink 5.5,2013-05-20 05:55:00,
2013-05-20 02:01:00,77.2,77.2,30.01,ESE,112,1.0,5.0,100,0.00,,,-99.99,WeatherLink 5.5,2013-05-20 06:01:00,
2013-05-20 02:10:00,77.1,77.1,30.00,ESE,112,1.0,4.0,100,0.00,,,-99.99,WeatherLink 5.5,2013-05-20 06:10:00,
2013-05-20 02:21:00,76.9,76.9,30.00,ESE,112,1.0,4.0,100,0.00,,,-99.99,WeatherLink 5.5,2013-05-20 06:21:00,
2013-05-20 02:30:00,76.9,76.9,30.00,ESE,112,1.0,6.0,100,0.00,,,-99.99,WeatherLink 5.5,2013-05-20 06:30:00,
2013-05-20 02:36:00,77.1,77.1,30.00,ESE,112,0.0,5.0,100,0.00,,,-99.99,WeatherLink 5.5,2013-05-20 06:36:00,
2013-05-20 02:45:00,77.3,77.3,30.00,ESE,112,1.0,5.0,100,0.00,,,-99.99,WeatherLink 5.5,2013-05-20 06:45:00,
2013-05-20 02:51:00,77.3,77.3,29.99,ESE,112,0.0,1.0,100,0.00,,,-99.99,WeatherLink 5.5,2013-05-20 06:51:00,
2013-05-20 03:00:00,77.0,77.0,30.00,ESE,112,0.0,3.0,100,0.00,,,-99.99,WeatherLink 5.5,2013-05-20 07:00:00,
2013-05-20 03:11:00,76.9,76.9,30.00,ESE,112,0.0,1.0,100,0.00,,,-99.99,WeatherLink 5.5,2013-05-20 07:11:00,
2013-05-20 03:21:00,76.8,76.8,29.99,ESE,112,0.0,1.0,100,0.00,,,-99.99,WeatherLink 5.5,2013-05-20 07:21:00,
2013-05-20 03:30:00,76.6,76.6,29.99,ESE,112,0.0,4.0,100,0.00,,,-99.99,WeatherLink 5.5,2013-05-20 07:30:00,
2013-05-20 03:40:00,76.2,76.2,29.98,North,-999,0.0,0.0,100,0.00,,,-99.99,WeatherLink 5.5,2013-05-20 07:40:00,
2013-05-20 03:46:00,76.1,76.1,29.98,ESE,112,0.0,1.0,100,0.00,,,-99.99,WeatherLink 5.5,2013-05-20 07:46:00,
2013-05-20 03:55:00,76.0,76.0,29.99,North,-999,0.0,0.0,100,0.00,,,-99.99,WeatherLink 5.5,2013-05-20 07:55:00,
2013-05-20 04:01:00,75.9,75.9,29.99,North,-999,0.0,1.0,100,0.00,,,-99.99,WeatherLink 5.5,2013-05-20 08:01:00,
2013-05-20 04:10:00,75.8,75.8,29.98,ESE,112,0.0,3.0,100,0.00,,,-99.99,WeatherLink 5.5,2013-05-20 08:10:00,
2013-05-20 04:21:00,75.8,75.8,29.98,North,-999,0.0,1.0,100,0.00,,,-99.99,WeatherLink 5.5,2013-05-20 08:21:00,
2013-05-20 04:30:00,75.7,73.5,29.99,North,-999,0.0,0.0,93,0.00,,,-99.99,WeatherLink 5.5,2013-05-20 08:30:00,
2013-05-20 04:36:00,75.8,73.3,29.99,ESE,112,0.0,4.0,92,0.00,,,-99.99,WeatherLink 5.5,2013-05-20 08:36:00,
2013-05-20 04:45:00,75.8,73.0,29.98,North,-999,0.0,0.0,91,0.00,,,-99.99,WeatherLink 5.5,2013-05-20 08:45:00,
2013-05-20 04:50:00,75.8,71.7,29.99,North,-999,0.0,0.0,87,0.00,,,-99.99,WeatherLink 5.5,2013-05-20 08:50:00,
2013-05-20 04:56:00,75.8,71.7,29.99,North,-999,0.0,0.0,87,0.00,,,-99.99,WeatherLink 5.5,2013-05-20 08:56:00,
2013-05-20 05:06:00,75.8,71.0,30.00,ESE,112,0.0,2.0,85,0.00,,,-99.99,WeatherLink 5.5,2013-05-20 09:06:00,
2013-05-20 05:11:00,75.8,70.3,29.98,ESE,112,0.0,1.0,83,0.00,,,-99.99,WeatherLink 5.5,2013-05-20 09:11:00,
2013-05-20 05:21:00,75.9,70.0,30.00,ESE,112,1.0,4.0,82,0.00,,,-99.99,WeatherLink 5.5,2013-05-20 09:21:00,
2013-05-20 05:30:00,76.1,70.2,30.00,ESE,112,0.0,3.0,82,0.00,,,-99.99,WeatherLink 5.5,2013-05-20 09:30:00,
2013-05-20 05:36:00,76.0,70.1,29.98,ESE,112,0.0,4.0,82,0.00,,,-99.99,WeatherLink 5.5,2013-05-20 09:36:00,
2013-05-20 05:45:00,76.3,70.0,29.97,ESE,112,0.0,5.0,81,0.00,,,-99.99,WeatherLink 5.5,2013-05-20 09:45:00,
2013-05-20 05:51:00,76.3,70.4,29.99,ESE,112,0.0,1.0,82,0.00,,,-99.99,WeatherLink 5.5,2013-05-20 09:51:00,
2013-05-20 06:00:00,76.4,70.1,30.00,ESE,112,1.0,5.0,81,0.00,,,-99.99,WeatherLink 5.5,2013-05-20 10:00:00,
2013-05-20 06:06:00,76.5,70.2,29.98,ESE,112,1.0,5.0,81,0.00,,,-99.99,WeatherLink 5.5,2013-05-20 10:06:00,
2013-05-20 06:16:00,76.5,70.2,29.98,ESE,112,0.0,4.0,81,0.00,,,-99.99,WeatherLink 5.5,2013-05-20 10:16:00,
2013-05-20 06:25:00,76.5,70.2,30.00,ESE,112,0.0,3.0,81,0.00,,,-99.99,WeatherLink 5.5,2013-05-20 10:25:00,
2013-05-20 06:31:00,76.5,70.6,29.99,ESE,112,0.0,4.0,82,0.00,,,-99.99,WeatherLink 5.5,2013-05-20 10:31:00,
2013-05-20 06:40:00,76.3,70.4,30.00,ESE,112,0.0,3.0,82,0.00,,,-99.99,WeatherLink 5.5,2013-05-20 10:40:00,
2013-05-20 06:46:00,76.3,70.4,29.98,ESE,112,0.0,3.0,82,0.00,,,-99.99,WeatherLink 5.5,2013-05-20 10:46:00,
2013-05-20 06:55:00,76.4,70.5,30.00,ESE,112,0.0,4.0,82,0.00,,,-99.99,WeatherLink 5.5,2013-05-20 10:55:00,
2013-05-20 07:01:00,76.6,70.7,29.99,ESE,112,0.0,2.0,82,0.00,,,-99.99,WeatherLink 5.5,2013-05-20 11:01:00,
2013-05-20 07:10:00,77.0,71.1,30.04,ESE,112,2.0,7.0,82,0.00,,,-99.99,WeatherLink 5.5,2013-05-20 11:10:00,
2013-05-20 07:16:00,77.3,71.4,30.03,ESE,112,1.0,4.0,82,0.00,,,-99.99,WeatherLink 5.5,2013-05-20 11:16:00,
2013-05-20 07:25:00,77.5,71.6,29.99,ESE,112,0.0,3.0,82,0.00,,,-99.99,WeatherLink 5.5,2013-05-20 11:25:00,
2013-05-20 07:30:00,77.6,72.0,30.01,ESE,112,1.0,6.0,83,0.00,,,-99.99,WeatherLink 5.5,2013-05-20 11:30:00,
2013-05-20 07:41:00,78.0,72.4,30.06,North,-999,0.0,1.0,83,0.00,,,-99.99,WeatherLink 5.5,2013-05-20 11:41:00,
2013-05-20 07:50:00,78.4,73.5,30.03,ESE,112,1.0,6.0,85,0.00,,,-99.99,WeatherLink 5.5,2013-05-20 11:50:00,
2013-05-20 07:56:00,78.6,76.1,30.02,ESE,112,1.0,4.0,92,0.00,,,-99.99,WeatherLink 5.5,2013-05-20 11:56:00,
2013-05-20 08:05:00,78.8,78.8,30.03,SSE,157,3.0,11.0,100,0.00,,,-99.99,WeatherLink 5.5,2013-05-20 12:05:00,
2013-05-20 08:10:00,78.3,78.3,30.03,SSE,157,1.0,6.0,100,0.01,,,-99.99,WeatherLink 5.5,2013-05-20 12:10:00,
2013-05-20 08:21:00,77.2,73.0,30.04,SSE,157,0.0,5.0,87,0.02,,,-99.99,WeatherLink 5.5,2013-05-20 12:21:00,
2013-05-20 08:31:00,76.8,70.5,30.03,North,-999,0.0,0.0,81,0.02,,,-99.99,WeatherLink 5.5,2013-05-20 12:31:00,
2013-05-20 08:40:00,76.3,70.0,30.03,North,-999,0.0,0.0,81,0.02,,,-99.99,WeatherLink 5.5,2013-05-20 12:40:00,
2013-05-20 08:46:00,76.3,70.0,30.06,North,-999,0.0,0.0,81,0.02,,,-99.99,WeatherLink 5.5,2013-05-20 12:46:00,
2013-05-20 08:55:00,76.2,-99.9,30.04,SSE,157,1.0,4.0,-999,0.02,,,-99.99,WeatherLink 5.5,2013-05-20 12:55:00,
2013-05-20 09:01:00,75.8,-99.9,30.04,SSE,157,0.0,5.0,-999,0.02,,,-99.99,WeatherLink 5.5,2013-05-20 13:01:00,
2013-05-20 09:11:00,75.5,-99.9,30.04,NE,45,1.0,7.0,-999,0.01,,,-99.99,WeatherLink 5.5,2013-05-20 13:11:00,
2013-05-20 09:20:00,75.5,69.3,30.05,North,-999,0.0,0.0,81,0.01,,,-99.99,WeatherLink 5.5,2013-05-20 13:20:00,
2013-05-20 09:26:00,75.5,-99.9,30.05,NNE,22,3.0,8.0,-999,0.01,,,-99.99,WeatherLink 5.5,2013-05-20 13:26:00,
2013-05-20 09:36:00,75.1,-99.9,30.05,North,0,0.0,1.0,-999,0.01,,,-99.99,WeatherLink 5.5,2013-05-20 13:36:00,
2013-05-20 09:46:00,75.0,-99.9,30.05,North,0,0.0,5.0,-999,0.01,,,-99.99,WeatherLink 5.5,2013-05-20 13:46:00,
2013-05-20 09:55:00,75.3,-99.9,30.05,North,-999,0.0,0.0,-999,0.01,,,-99.99,WeatherLink 5.5,2013-05-20 13:55:00,
2013-05-20 10:01:00,75.4,-99.9,30.05,North,0,0.0,1.0,-999,0.01,,,-99.99,WeatherLink 5.5,2013-05-20 14:01:00,
2013-05-20 10:11:00,75.6,-99.9,30.04,North,-999,0.0,0.0,-999,0.02,,,-99.99,WeatherLink 5.5,2013-05-20 14:11:00,
2013-05-20 10:20:00,76.1,-99.9,30.06,North,0,1.0,5.0,-999,0.01,,,-99.99,WeatherLink 5.5,2013-05-20 14:20:00,
2013-05-20 10:26:00,75.7,-99.9,30.05,SW,225,2.0,7.0,-999,0.01,,,-99.99,WeatherLink 5.5,2013-05-20 14:26:00,
2013-05-20 10:36:00,73.8,-99.9,30.06,East,90,2.0,10.0,-999,0.02,,,-99.99,WeatherLink 5.5,2013-05-20 14:36:00,
2013-05-20 10:46:00,73.0,-99.9,30.05,West,270,4.0,10.0,-999,0.06,,,-99.99,WeatherLink 5.5,2013-05-20 14:46:00,
2013-05-20 10:55:00,72.3,-99.9,30.06,WNW,292,2.0,10.0,-999,0.10,,,-99.99,WeatherLink 5.5,2013-05-20 14:55:00,
2013-05-20 11:01:00,72.5,66.3,30.06,WNW,292,2.0,8.0,81,0.12,,,-99.99,WeatherLink 5.5,2013-05-20 15:01:00,
2013-05-20 11:11:00,72.8,66.6,30.08,SW,225,9.0,20.0,81,0.15,,,-99.99,WeatherLink 5.5,2013-05-20 15:11:00,
2013-05-20 11:20:00,71.8,-99.9,30.06,West,270,5.0,9.0,-999,0.20,,,-99.99,WeatherLink 5.5,2013-05-20 15:20:00,
2013-05-20 11:25:00,71.5,-99.9,30.06,West,270,3.0,8.0,-999,0.23,,,-99.99,WeatherLink 5.5,2013-05-20 15:25:00,
2013-05-20 11:36:00,71.8,-99.9,30.06,SW,225,2.0,6.0,-999,0.27,,,-99.99,WeatherLink 5.5,2013-05-20 15:36:00,
2013-05-20 11:46:00,71.7,-99.9,30.06,North,-999,0.0,1.0,-999,0.28,,,-99.99,WeatherLink 5.5,2013-05-20 15:46:00,
2013-05-20 11:55:00,72.0,-99.9,30.06,South,180,0.0,4.0,-999,0.28,,,-99.99,WeatherLink 5.5,2013-05-20 15:55:00,
2013-05-20 12:01:00,71.9,-99.9,30.07,South,180,0.0,4.0,-999,0.28,,,-99.99,WeatherLink 5.5,2013-05-20 16:01:00,
2013-05-20 12:11:00,72.0,-99.9,30.07,SSW,202,1.0,5.0,-999,0.28,,,-99.99,WeatherLink 5.5,2013-05-20 16:11:00,
2013-05-20 12:20:00,72.2,-99.9,30.07,SW,225,6.0,15.0,-999,0.26,,,-99.99,WeatherLink 5.5,2013-05-20 16:20:00,
2013-05-20 12:26:00,71.5,-99.9,30.07,SW,225,2.0,12.0,-999,0.25,,,-99.99,WeatherLink 5.5,2013-05-20 16:26:00,
2013-05-20 12:36:00,71.2,-99.9,30.06,SSW,202,1.0,6.0,-999,0.24,,,-99.99,WeatherLink 5.5,2013-05-20 16:36:00,
2013-05-20 12:45:00,72.0,-99.9,30.06,SSW,202,1.0,8.0,-999,0.23,,,-99.99,WeatherLink 5.5,2013-05-20 16:45:00,
2013-05-20 12:51:00,72.3,-99.9,30.06,North,-999,0.0,0.0,-999,0.22,,,-99.99,WeatherLink 5.5,2013-05-20 16:51:00,
2013-05-20 13:01:00,73.4,-99.9,30.05,SSE,157,1.0,5.0,-999,0.21,,,-99.99,WeatherLink 5.5,2013-05-20 17:01:00,
2013-05-20 13:10:00,73.9,-99.9,30.05,SE,135,1.0,4.0,-999,0.20,,,-99.99,WeatherLink 5.5,2013-05-20 17:10:00,
2013-05-20 13:16:00,73.7,-99.9,30.05,ESE,112,1.0,4.0,-999,0.20,,,-99.99,WeatherLink 5.5,2013-05-20 17:16:00,
2013-05-20 13:26:00,73.8,-99.9,30.05,ENE,67,1.0,5.0,-999,0.19,,,-99.99,WeatherLink 5.5,2013-05-20 17:26:00,
2013-05-20 13:36:00,74.2,-99.9,30.03,ENE,67,0.0,4.0,-999,0.17,,,-99.99,WeatherLink 5.5,2013-05-20 17:36:00,
2013-05-20 13:45:00,74.3,-99.9,30.04,NE,45,1.0,6.0,-999,0.15,,,-99.99,WeatherLink 5.5,2013-05-20 17:45:00,
2013-05-20 13:51:00,74.6,68.4,30.05,NE,45,0.0,5.0,81,0.16,,,-99.99,WeatherLink 5.5,2013-05-20 17:51:00,
2013-05-20 14:01:00,75.0,-99.9,30.04,NE,45,0.0,4.0,-999,0.14,,,-99.99,WeatherLink 5.5,2013-05-20 18:01:00,
2013-05-20 14:05:00,75.3,-99.9,30.05,NE,45,3.0,7.0,-999,0.13,,,-99.99,WeatherLink 5.5,2013-05-20 18:05:00,
2013-05-20 14:15:00,75.1,-99.9,30.05,NE,45,2.0,7.0,-999,0.13,,,-99.99,WeatherLink 5.5,2013-05-20 18:15:00,
2013-05-20 14:21:00,74.7,-99.9,30.05,NE,45,1.0,7.0,-999,0.13,,,-99.99,WeatherLink 5.5,2013-05-20 18:21:00,
2013-05-20 14:31:00,74.8,-99.9,30.05,NE,45,1.0,4.0,-999,0.11,,,-99.99,WeatherLink 5.5,2013-05-20 18:31:00,
2013-05-20 14:40:00,75.1,-99.9,30.05,NE,45,0.0,4.0,-999,0.11,,,-99.99,WeatherLink 5.5,2013-05-20 18:40:00,
2013-05-20 14:46:00,75.2,69.0,30.04,NE,45,0.0,4.0,81,0.10,,,-99.99,WeatherLink 5.5,2013-05-20 18:46:00,
2013-05-20 14:56:00,75.7,-99.9,30.05,NE,45,2.0,11.0,-999,0.10,,,-99.99,WeatherLink 5.5,2013-05-20 18:56:00,
2013-05-20 15:05:00,75.0,-99.9,30.04,South,180,0.0,7.0,-999,0.09,,,-99.99,WeatherLink 5.5,2013-05-20 19:05:00,
2013-05-20 15:11:00,74.9,-99.9,30.04,SSE,157,0.0,4.0,-999,0.09,,,-99.99,WeatherLink 5.5,2013-05-20 19:11:00,
2013-05-20 15:20:00,74.6,-99.9,30.03,ESE,112,2.0,10.0,-999,0.07,,,-99.99,WeatherLink 5.5,2013-05-20 19:20:00,
2013-05-20 15:25:00,74.2,-99.9,30.02,ESE,112,1.0,7.0,-999,0.07,,,-99.99,WeatherLink 5.5,2013-05-20 19:25:00,
2013-05-20 15:36:00,73.4,-99.9,30.02,SE,135,2.0,7.0,-999,0.07,,,-99.99,WeatherLink 5.5,2013-05-20 19:36:00,
2013-05-20 15:46:00,72.8,-99.9,30.03,SE,135,4.0,13.0,-999,0.06,,,-99.99,WeatherLink 5.5,2013-05-20 19:46:00,
2013-05-20 15:55:00,72.7,-99.9,30.03,ESE,112,4.0,12.0,-999,0.05,,,-99.99,WeatherLink 5.5,2013-05-20 19:55:00,
2013-05-20 16:01:00,72.1,-99.9,30.02,SE,135,4.0,10.0,-999,0.05,,,-99.99,WeatherLink 5.5,2013-05-20 20:01:00,
2013-05-20 16:11:00,71.6,-99.9,30.01,SE,135,4.0,11.0,-999,0.04,,,-99.99,WeatherLink 5.5,2013-05-20 20:11:00,
2013-05-20 16:20:00,71.9,-99.9,30.01,ESE,112,4.0,10.0,-999,0.04,,,-99.99,WeatherLink 5.5,2013-05-20 20:20:00,
2013-05-20 16:25:00,72.1,-99.9,30.00,ESE,112,1.0,6.0,-999,0.04,,,-99.99,WeatherLink 5.5,2013-05-20 20:25:00,
2013-05-20 16:36:00,72.4,-99.9,30.00,ESE,112,0.0,3.0,-999,0.03,,,-99.99,WeatherLink 5.5,2013-05-20 20:36:00,
2013-05-20 16:45:00,72.7,-99.9,30.00,ESE,112,0.0,3.0,-999,0.04,,,-99.99,WeatherLink 5.5,2013-05-20 20:45:00,
2013-05-20 16:51:00,72.9,-99.9,30.00,ESE,112,0.0,3.0,-999,0.04,,,-99.99,WeatherLink 5.5,2013-05-20 20:51:00,
2013-05-20 17:00:00,73.2,-99.9,30.01,East,90,0.0,3.0,-999,0.03,,,-99.99,WeatherLink 5.5,2013-05-20 21:00:00,
2013-05-20 17:06:00,73.2,-99.9,30.01,East,90,2.0,6.0,-999,0.02,,,-99.99,WeatherLink 5.5,2013-05-20 21:06:00,
2013-05-20 17:16:00,73.4,67.2,30.00,North,0,0.0,1.0,81,0.03,,,-99.99,WeatherLink 5.5,2013-05-20 21:16:00,
2013-05-20 17:25:00,73.8,-99.9,30.00,North,0,0.0,4.0,-999,0.02,,,-99.99,WeatherLink 5.5,2013-05-20 21:25:00,
2013-05-20 17:31:00,74.1,-99.9,30.00,North,-999,0.0,0.0,-999,0.02,,,-99.99,WeatherLink 5.5,2013-05-20 21:31:00,
2013-05-20 17:41:00,74.4,-99.9,30.00,North,-999,0.0,0.0,-999,0.02,,,-99.99,WeatherLink 5.5,2013-05-20 21:41:00,
2013-05-20 17:50:00,74.6,-99.9,29.99,North,-999,0.0,0.0,-999,0.02,,,-99.99,WeatherLink 5.5,2013-05-20 21:50:00,
2013-05-20 17:56:00,74.7,-99.9,29.99,North,-999,0.0,0.0,-999,0.02,,,-99.99,WeatherLink 5.5,2013-05-20 21:56:00,
2013-05-20 18:06:00,74.8,-99.9,29.99,North,-999,0.0,0.0,-999,0.02,,,-99.99,WeatherLink 5.5,2013-05-20 22:06:00,
2013-05-20 18:15:00,74.9,-99.9,29.99,North,-999,0.0,0.0,-999,0.02,,,-99.99,WeatherLink 5.5,2013-05-20 22:15:00,
2013-05-20 18:21:00,75.1,-99.9,29.98,North,-999,0.0,0.0,-999,0.02,,,-99.99,WeatherLink 5.5,2013-05-20 22:21:00,
2013-05-20 18:25:00,75.2,-99.9,29.99,North,0,0.0,2.0,-999,0.02,,,-99.99,WeatherLink 5.5,2013-05-20 22:25:00,
2013-05-20 18:35:00,75.1,-99.9,29.98,North,0,0.0,1.0,-999,0.01,,,-99.99,WeatherLink 5.5,2013-05-20 22:35:00,
2013-05-20 18:41:00,75.1,-99.9,29.98,North,-999,0.0,0.0,-999,0.01,,,-99.99,WeatherLink 5.5,2013-05-20 22:41:00,
2013-05-20 18:50:00,75.2,-99.9,29.98,North,0,0.0,2.0,-999,0.02,,,-99.99,WeatherLink 5.5,2013-05-20 22:50:00,
2013-05-20 18:56:00,75.2,-99.9,29.98,North,0,0.0,1.0,-999,0.02,,,-99.99,WeatherLink 5.5,2013-05-20 22:56:00,
2013-05-20 19:06:00,75.1,-99.9,29.97,North,0,1.0,4.0,-999,0.02,,,-99.99,WeatherLink 5.5,2013-05-20 23:06:00,
2013-05-20 19:16:00,75.1,-99.9,29.97,North,0,0.0,5.0,-999,0.01,,,-99.99,WeatherLink 5.5,2013-05-20 23:16:00,
2013-05-20 19:25:00,75.1,-99.9,29.97,North,0,0.0,1.0,-999,0.01,,,-99.99,WeatherLink 5.5,2013-05-20 23:25:00,
2013-05-20 19:35:00,75.1,-99.9,29.98,North,0,0.0,4.0,-999,0.02,,,-99.99,WeatherLink 5.5,2013-05-20 23:35:00,
2013-05-20 19:41:00,75.0,-99.9,29.98,North,0,0.0,2.0,-999,0.02,,,-99.99,WeatherLink 5.5,2013-05-20 23:41:00,
2013-05-20 19:51:00,75.0,-99.9,30.00,North,-999,0.0,0.0,-999,0.01,,,-99.99,WeatherLink 5.5,2013-05-20 23:51:00,
2013-05-20 20:01:00,75.0,-99.9,30.00,North,-999,0.0,0.0,-999,0.01,,,-99.99,WeatherLink 5.5,2013-05-21 00:01:00,
2013-05-20 20:11:00,75.0,-99.9,30.01,North,-999,0.0,0.0,-999,0.01,,,-99.99,WeatherLink 5.5,2013-05-21 00:11:00,
2013-05-20 20:20:00,75.0,-99.9,30.02,North,0,0.0,3.0,-999,0.02,,,-99.99,WeatherLink 5.5,2013-05-21 00:20:00,
2013-05-20 20:26:00,75.1,-99.9,30.01,North,-999,0.0,1.0,-999,0.02,,,-99.99,WeatherLink 5.5,2013-05-21 00:26:00,
2013-05-20 20:35:00,75.2,-99.9,30.02,North,-999,0.0,0.0,-999,0.01,,,-99.99,WeatherLink 5.5,2013-05-21 00:35:00,
2013-05-20 20:40:00,75.2,-99.9,30.02,North,0,0.0,2.0,-999,0.01,,,-99.99,WeatherLink 5.5,2013-05-21 00:40:00,
2013-05-20 20:51:00,75.3,-99.9,30.02,North,0,0.0,4.0,-999,0.01,,,-99.99,WeatherLink 5.5,2013-05-21 00:51:00,
2013-05-20 21:00:00,75.3,-99.9,30.02,North,0,0.0,3.0,-999,0.01,,,-99.99,WeatherLink 5.5,2013-05-21 01:00:00,
2013-05-20 21:05:00,75.3,-99.9,30.02,North,-999,0.0,0.0,-999,0.01,,,-99.99,WeatherLink 5.5,2013-05-21 01:05:00,
2013-05-20 21:11:00,75.3,-99.9,30.01,North,-999,0.0,0.0,-999,0.02,,,-99.99,WeatherLink 5.5,2013-05-21 01:11:00,
2013-05-20 21:20:00,75.2,-99.9,30.01,North,-999,0.0,0.0,-999,0.01,,,-99.99,WeatherLink 5.5,2013-05-21 01:20:00,
2013-05-20 21:25:00,75.2,-99.9,30.02,North,-999,0.0,0.0,-999,0.01,,,-99.99,WeatherLink 5.5,2013-05-21 01:25:00,
2013-05-20 21:35:00,74.9,-99.9,30.02,North,-999,0.0,0.0,-999,0.01,,,-99.99,WeatherLink 5.5,2013-05-21 01:35:00,
2013-05-20 21:45:00,74.5,-99.9,30.02,North,-999,0.0,0.0,-999,0.01,,,-99.99,WeatherLink 5.5,2013-05-21 01:45:00,
2013-05-20 21:55:00,74.4,-99.9,30.02,North,-999,0.0,0.0,-999,0.01,,,-99.99,WeatherLink 5.5,2013-05-21 01:55:00,
2013-05-20 22:05:00,74.4,-99.9,30.02,North,-999,0.0,0.0,-999,0.02,,,-99.99,WeatherLink 5.5,2013-05-21 02:05:00,
2013-05-20 22:10:00,74.5,-99.9,30.02,North,0,0.0,2.0,-999,0.01,,,-99.99,WeatherLink 5.5,2013-05-21 02:10:00,
2013-05-20 22:20:00,74.3,-99.9,30.03,South,180,8.0,19.0,-999,0.01,,,-99.99,WeatherLink 5.5,2013-05-21 02:20:00,
2013-05-20 22:30:00,72.6,-99.9,30.04,SSW,202,6.0,16.0,-999,0.01,,,-99.99,WeatherLink 5.5,2013-05-21 02:30:00,
2013-05-20 22:35:00,72.2,-99.9,30.04,South,180,4.0,12.0,-999,0.01,,,-99.99,WeatherLink 5.5,2013-05-21 02:35:00,
2013-05-20 22:45:00,71.6,-99.9,30.04,SSE,157,12.0,27.0,-999,0.01,,,-99.99,WeatherLink 5.5,2013-05-21 02:45:00,
2013-05-20 22:55:00,70.9,-99.9,30.03,SSE,157,5.0,13.0,-999,0.01,,,-99.99,WeatherLink 5.5,2013-05-21 02:55:00,
2013-05-20 23:05:00,70.8,-99.9,30.03,SSE,157,2.0,14.0,-999,0.00,,,-99.99,WeatherLink 5.5,2013-05-21 03:05:00,
2013-05-20 23:10:00,70.8,-99.9,30.04,SSE,157,0.0,4.0,-999,0.00,,,-99.99,WeatherLink 5.5,2013-05-21 03:10:00,
2013-05-20 23:20:00,70.7,-99.9,30.05,North,0,2.0,8.0,-999,0.01,,,-99.99,WeatherLink 5.5,2013-05-21 03:20:00,
2013-05-20 23:30:00,71.0,-99.9,30.06,NNE,22,1.0,5.0,-999,0.01,,,-99.99,WeatherLink 5.5,2013-05-21 03:30:00,
2013-05-20 23:35:00,70.9,-99.9,30.06,NNE,22,1.0,6.0,-999,0.01,,,-99.99,WeatherLink 5.5,2013-05-21 03:35:00,
2013-05-20 23:45:00,70.6,-99.9,30.05,NNE,22,1.0,6.0,-999,0.01,,,-99.99,WeatherLink 5.5,2013-05-21 03:45:00,
2013-05-20 23:55:00,70.0,-99.9,30.05,North,-999,0.0,0.0,-999,0.01,,,-99.99,WeatherLink 5.5,2013-05-21 03:55:00,